sensor_id;sensor_type;location;lat;lon;timestamp;P1;durP1;ratioP1;P2;durP2;ratioP2
39340;SDS011;25059;52.132;21.062;2023-07-31T05:36:07;0.10;;;0.10;;
39340;SDS011;25059;52.132;21.062;2023-07-31T05:41:41;0.10;;;0.10;;
39340;SDS011;25059;52.132;21.062;2023-07-31T05:44:26;0.10;;;0.10;;
39340;SDS011;25059;52.132;21.062;2023-07-31T05:47:10;0.10;;;0.10;;
39340;SDS011;25059;52.132;21.062;2023-07-31T05:49:55;0.10;;;0.10;;
39340;SDS011;25059;52.132;21.062;2023-07-31T05:52:39;0.10;;;0.10;;
39340;SDS011;25059;52.132;21.062;2023-07-31T05:55:24;0.10;;;0.10;;
39340;SDS011;25059;52.132;21.062;2023-07-31T05:58:11;0.17;;;0.17;;
39340;SDS011;25059;52.132;21.062;2023-07-31T06:00:55;0.10;;;0.10;;
39340;SDS011;25059;52.132;21.062;2023-07-31T06:03:39;0.10;;;0.10;;
39340;SDS011;25059;52.132;21.062;2023-07-31T06:06:24;0.10;;;0.10;;
39340;SDS011;25059;52.132;21.062;2023-07-31T06:09:08;0.10;;;0.10;;
39340;SDS011;25059;52.132;21.062;2023-07-31T06:11:53;0.10;;;0.10;;
39340;SDS011;25059;52.132;21.062;2023-07-31T06:14:38;0.10;;;0.10;;
39340;SDS011;25059;52.132;21.062;2023-07-31T06:17:22;0.05;;;0.05;;
39340;SDS011;25059;52.132;21.062;2023-07-31T06:20:07;0.20;;;0.20;;
39340;SDS011;25059;52.132;21.062;2023-07-31T06:22:52;0.10;;;0.10;;
39340;SDS011;25059;52.132;21.062;2023-07-31T06:25:36;0.10;;;0.10;;
39340;SDS011;25059;52.132;21.062;2023-07-31T06:28:21;0.10;;;0.10;;
39340;SDS011;25059;52.132;21.062;2023-07-31T06:31:05;0.10;;;0.10;;
39340;SDS011;25059;52.132;21.062;2023-07-31T06:33:50;0.10;;;0.10;;
39340;SDS011;25059;52.132;21.062;2023-07-31T06:36:35;0.10;;;0.10;;
39340;SDS011;25059;52.132;21.062;2023-07-31T06:39:22;0.10;;;0.10;;
39340;SDS011;25059;52.132;21.062;2023-07-31T06:42:06;0.10;;;0.10;;
39340;SDS011;25059;52.132;21.062;2023-07-31T06:44:51;0.10;;;0.10;;
39340;SDS011;25059;52.132;21.062;2023-07-31T06:47:36;0.10;;;0.10;;
39340;SDS011;25059;52.132;21.062;2023-07-31T06:50:20;0.10;;;0.10;;
39340;SDS011;25059;52.132;21.062;2023-07-31T06:53:05;0.10;;;0.10;;
39340;SDS011;25059;52.132;21.062;2023-07-31T06:55:49;0.10;;;0.10;;
39340;SDS011;25059;52.132;21.062;2023-07-31T06:58:35;0.10;;;0.10;;
39340;SDS011;25059;52.132;21.062;2023-07-31T07:01:20;0.10;;;0.10;;
39340;SDS011;25059;52.132;21.062;2023-07-31T07:04:05;0.10;;;0.10;;
39340;SDS011;25059;52.132;21.062;2023-07-31T07:06:49;0.10;;;0.10;;
39340;SDS011;25059;52.132;21.062;2023-07-31T07:09:34;0.10;;;0.10;;
39340;SDS011;25059;52.132;21.062;2023-07-31T07:12:18;0.10;;;0.10;;
39340;SDS011;25059;52.132;21.062;2023-07-31T07:15:06;0.10;;;0.10;;
39340;SDS011;25059;52.132;21.062;2023-07-31T07:17:50;0.10;;;0.10;;
39340;SDS011;25059;52.132;21.062;2023-07-31T07:20:34;0.10;;;0.10;;
39340;SDS011;25059;52.132;21.062;2023-07-31T07:23:19;0.10;;;0.10;;
39340;SDS011;25059;52.132;21.062;2023-07-31T07:26:04;0.10;;;0.10;;
39340;SDS011;25059;52.132;21.062;2023-07-31T07:28:49;0.20;;;0.20;;
39340;SDS011;25059;52.132;21.062;2023-07-31T07:31:33;0.10;;;0.10;;
39340;SDS011;25059;52.132;21.062;2023-07-31T07:34:17;0.10;;;0.10;;
39340;SDS011;25059;52.132;21.062;2023-07-31T07:37:01;0.10;;;0.10;;
39340;SDS011;25059;52.132;21.062;2023-07-31T07:39:46;0.10;;;0.10;;
39340;SDS011;25059;52.132;21.062;2023-07-31T07:42:30;0.10;;;0.10;;
39340;SDS011;25059;52.132;21.062;2023-07-31T07:45:15;0.10;;;0.10;;
39340;SDS011;25059;52.132;21.062;2023-07-31T07:48:00;0.10;;;0.10;;
39340;SDS011;25059;52.132;21.062;2023-07-31T07:50:44;0.10;;;0.10;;
39340;SDS011;25059;52.132;21.062;2023-07-31T07:53:29;0.10;;;0.10;;
39340;SDS011;25059;52.132;21.062;2023-07-31T07:56:13;0.17;;;0.17;;
39340;SDS011;25059;52.132;21.062;2023-07-31T07:58:57;0.10;;;0.10;;
39340;SDS011;25059;52.132;21.062;2023-07-31T08:01:41;0.10;;;0.10;;
39340;SDS011;25059;52.132;21.062;2023-07-31T08:04:25;0.10;;;0.10;;
39340;SDS011;25059;52.132;21.062;2023-07-31T08:07:10;0.10;;;0.10;;
39340;SDS011;25059;52.132;21.062;2023-07-31T08:09:55;0.10;;;0.10;;
39340;SDS011;25059;52.132;21.062;2023-07-31T08:12:40;0.10;;;0.10;;
39340;SDS011;25059;52.132;21.062;2023-07-31T08:15:24;0.10;;;0.10;;
39340;SDS011;25059;52.132;21.062;2023-07-31T08:18:10;0.10;;;0.10;;
39340;SDS011;25059;52.132;21.062;2023-07-31T08:20:55;0.10;;;0.10;;
39340;SDS011;25059;52.132;21.062;2023-07-31T08:23:40;0.10;;;0.10;;
39340;SDS011;25059;52.132;21.062;2023-07-31T08:26:24;0.10;;;0.10;;
39340;SDS011;25059;52.132;21.062;2023-07-31T08:29:09;0.10;;;0.10;;
39340;SDS011;25059;52.132;21.062;2023-07-31T08:31:53;0.10;;;0.10;;
39340;SDS011;25059;52.132;21.062;2023-07-31T08:34:38;0.10;;;0.10;;
39340;SDS011;25059;52.132;21.062;2023-07-31T08:37:22;0.10;;;0.10;;
39340;SDS011;25059;52.132;21.062;2023-07-31T08:40:07;0.10;;;0.10;;
39340;SDS011;25059;52.132;21.062;2023-07-31T08:42:52;0.10;;;0.10;;
39340;SDS011;25059;52.132;21.062;2023-07-31T08:45:37;0.10;;;0.10;;
39340;SDS011;25059;52.132;21.062;2023-07-31T08:48:23;0.10;;;0.10;;
39340;SDS011;25059;52.132;21.062;2023-07-31T08:54:41;0.10;;;0.10;;
39340;SDS011;25059;52.132;21.062;2023-07-31T08:57:25;0.10;;;0.10;;
39340;SDS011;25059;52.132;21.062;2023-07-31T09:00:10;0.10;;;0.10;;
39340;SDS011;25059;52.132;21.062;2023-07-31T09:02:57;0.10;;;0.10;;
39340;SDS011;25059;52.132;21.062;2023-07-31T09:05:43;0.10;;;0.10;;
39340;SDS011;25059;52.132;21.062;2023-07-31T09:08:30;0.10;;;0.10;;
39340;SDS011;25059;52.132;21.062;2023-07-31T09:11:14;0.10;;;0.10;;
39340;SDS011;25059;52.132;21.062;2023-07-31T09:13:59;0.10;;;0.10;;
39340;SDS011;25059;52.132;21.062;2023-07-31T09:16:53;0.10;;;0.10;;
39340;SDS011;25059;52.132;21.062;2023-07-31T09:19:40;0.10;;;0.10;;
39340;SDS011;25059;52.132;21.062;2023-07-31T09:22:33;0.10;;;0.10;;
39340;SDS011;25059;52.132;21.062;2023-07-31T09:28:04;0.00;;;0.00;;
39340;SDS011;25059;52.132;21.062;2023-07-31T09:30:49;0.10;;;0.10;;
39340;SDS011;25059;52.132;21.062;2023-07-31T09:33:34;0.00;;;0.00;;
39340;SDS011;25059;52.132;21.062;2023-07-31T09:36:30;0.10;;;0.10;;
39340;SDS011;25059;52.132;21.062;2023-07-31T09:39:16;0.10;;;0.10;;
39340;SDS011;25059;52.132;21.062;2023-07-31T09:42:01;0.10;;;0.10;;
39340;SDS011;25059;52.132;21.062;2023-07-31T09:44:45;0.10;;;0.10;;
39340;SDS011;25059;52.132;21.062;2023-07-31T09:47:30;0.10;;;0.10;;
39340;SDS011;25059;52.132;21.062;2023-07-31T09:50:15;0.10;;;0.10;;
39340;SDS011;25059;52.132;21.062;2023-07-31T09:53:00;0.10;;;0.10;;
39340;SDS011;25059;52.132;21.062;2023-07-31T09:55:44;0.10;;;0.10;;
39340;SDS011;25059;52.132;21.062;2023-07-31T09:58:29;0.10;;;0.10;;
39340;SDS011;25059;52.132;21.062;2023-07-31T10:01:13;0.10;;;0.10;;
39340;SDS011;25059;52.132;21.062;2023-07-31T10:03:59;0.10;;;0.10;;
39340;SDS011;25059;52.132;21.062;2023-07-31T10:06:45;0.10;;;0.10;;
39340;SDS011;25059;52.132;21.062;2023-07-31T10:09:30;0.10;;;0.10;;
39340;SDS011;25059;52.132;21.062;2023-07-31T10:12:15;0.10;;;0.10;;
39340;SDS011;25059;52.132;21.062;2023-07-31T10:15:00;0.10;;;0.10;;
39340;SDS011;25059;52.132;21.062;2023-07-31T10:17:47;0.10;;;0.10;;
39340;SDS011;25059;52.132;21.062;2023-07-31T10:20:31;0.10;;;0.10;;
39340;SDS011;25059;52.132;21.062;2023-07-31T10:23:16;0.10;;;0.10;;
39340;SDS011;25059;52.132;21.062;2023-07-31T10:26:00;0.10;;;0.10;;
39340;SDS011;25059;52.132;21.062;2023-07-31T10:28:45;0.10;;;0.10;;
39340;SDS011;25059;52.132;21.062;2023-07-31T10:31:31;0.00;;;0.00;;
39340;SDS011;25059;52.132;21.062;2023-07-31T10:34:16;0.00;;;0.00;;
39340;SDS011;25059;52.132;21.062;2023-07-31T10:40:07;0.10;;;0.10;;
39340;SDS011;25059;52.132;21.062;2023-07-31T10:42:54;0.20;;;0.20;;
39340;SDS011;25059;52.132;21.062;2023-07-31T10:45:39;0.20;;;0.20;;
39340;SDS011;25059;52.132;21.062;2023-07-31T10:48:24;0.10;;;0.10;;
39340;SDS011;25059;52.132;21.062;2023-07-31T10:51:09;0.20;;;0.20;;
39340;SDS011;25059;52.132;21.062;2023-07-31T10:53:56;0.13;;;0.13;;
39340;SDS011;25059;52.132;21.062;2023-07-31T10:56:55;0.30;;;0.30;;
39340;SDS011;25059;52.132;21.062;2023-07-31T10:59:40;0.20;;;0.20;;
39340;SDS011;25059;52.132;21.062;2023-07-31T11:02:26;0.30;;;0.30;;
39340;SDS011;25059;52.132;21.062;2023-07-31T11:05:11;0.25;;;0.25;;
39340;SDS011;25059;52.132;21.062;2023-07-31T11:07:57;0.20;;;0.20;;
39340;SDS011;25059;52.132;21.062;2023-07-31T11:10:42;0.40;;;0.40;;
39340;SDS011;25059;52.132;21.062;2023-07-31T11:13:27;0.30;;;0.30;;
39340;SDS011;25059;52.132;21.062;2023-07-31T11:16:13;0.40;;;0.40;;
39340;SDS011;25059;52.132;21.062;2023-07-31T11:18:58;0.30;;;0.30;;
39340;SDS011;25059;52.132;21.062;2023-07-31T11:21:42;0.10;;;0.10;;
39340;SDS011;25059;52.132;21.062;2023-07-31T11:24:26;0.15;;;0.15;;
39340;SDS011;25059;52.132;21.062;2023-07-31T11:27:14;0.17;;;0.17;;
39340;SDS011;25059;52.132;21.062;2023-07-31T11:30:01;0.30;;;0.30;;
39340;SDS011;25059;52.132;21.062;2023-07-31T11:32:46;0.20;;;0.20;;
39340;SDS011;25059;52.132;21.062;2023-07-31T11:35:32;0.10;;;0.10;;
39340;SDS011;25059;52.132;21.062;2023-07-31T11:38:21;0.10;;;0.10;;
39340;SDS011;25059;52.132;21.062;2023-07-31T11:41:09;0.17;;;0.17;;
39340;SDS011;25059;52.132;21.062;2023-07-31T11:43:59;0.20;;;0.20;;
39340;SDS011;25059;52.132;21.062;2023-07-31T11:46:43;0.20;;;0.20;;
39340;SDS011;25059;52.132;21.062;2023-07-31T11:49:27;0.20;;;0.20;;
39340;SDS011;25059;52.132;21.062;2023-07-31T11:52:12;0.30;;;0.30;;
39340;SDS011;25059;52.132;21.062;2023-07-31T11:54:57;0.20;;;0.20;;
39340;SDS011;25059;52.132;21.062;2023-07-31T11:57:43;0.20;;;0.20;;
39340;SDS011;25059;52.132;21.062;2023-07-31T12:00:28;0.10;;;0.10;;
39340;SDS011;25059;52.132;21.062;2023-07-31T12:03:14;0.20;;;0.20;;
39340;SDS011;25059;52.132;21.062;2023-07-31T12:05:59;0.10;;;0.10;;
39340;SDS011;25059;52.132;21.062;2023-07-31T12:08:43;0.10;;;0.10;;
39340;SDS011;25059;52.132;21.062;2023-07-31T12:11:28;0.10;;;0.10;;
39340;SDS011;25059;52.132;21.062;2023-07-31T12:14:21;0.08;;;0.08;;
39340;SDS011;25059;52.132;21.062;2023-07-31T12:17:06;0.10;;;0.10;;
39340;SDS011;25059;52.132;21.062;2023-07-31T12:19:51;0.10;;;0.10;;
39340;SDS011;25059;52.132;21.062;2023-07-31T12:22:36;0.10;;;0.10;;
39340;SDS011;25059;52.132;21.062;2023-07-31T12:25:20;0.10;;;0.10;;
39340;SDS011;25059;52.132;21.062;2023-07-31T12:28:05;0.10;;;0.10;;
39340;SDS011;25059;52.132;21.062;2023-07-31T12:30:50;0.10;;;0.10;;
39340;SDS011;25059;52.132;21.062;2023-07-31T12:33:34;0.00;;;0.00;;
39340;SDS011;25059;52.132;21.062;2023-07-31T12:36:21;0.10;;;0.10;;
39340;SDS011;25059;52.132;21.062;2023-07-31T12:39:06;0.10;;;0.10;;
39340;SDS011;25059;52.132;21.062;2023-07-31T12:41:50;0.10;;;0.10;;
39340;SDS011;25059;52.132;21.062;2023-07-31T12:44:34;0.10;;;0.10;;
39340;SDS011;25059;52.132;21.062;2023-07-31T12:47:18;0.10;;;0.10;;
39340;SDS011;25059;52.132;21.062;2023-07-31T12:50:03;0.10;;;0.10;;
39340;SDS011;25059;52.132;21.062;2023-07-31T12:52:48;0.10;;;0.10;;
39340;SDS011;25059;52.132;21.062;2023-07-31T12:55:32;0.10;;;0.10;;
39340;SDS011;25059;52.132;21.062;2023-07-31T12:58:18;0.03;;;0.03;;
39340;SDS011;25059;52.132;21.062;2023-07-31T13:01:02;0.10;;;0.10;;
39340;SDS011;25059;52.132;21.062;2023-07-31T13:03:47;0.10;;;0.10;;
39340;SDS011;25059;52.132;21.062;2023-07-31T13:06:32;0.10;;;0.10;;
39340;SDS011;25059;52.132;21.062;2023-07-31T13:09:16;0.03;;;0.03;;
39340;SDS011;25059;52.132;21.062;2023-07-31T13:12:02;0.10;;;0.10;;
39340;SDS011;25059;52.132;21.062;2023-07-31T13:14:47;0.10;;;0.10;;
39340;SDS011;25059;52.132;21.062;2023-07-31T13:17:33;0.20;;;0.20;;
39340;SDS011;25059;52.132;21.062;2023-07-31T13:20:17;0.10;;;0.10;;
39340;SDS011;25059;52.132;21.062;2023-07-31T13:23:01;0.10;;;0.10;;
39340;SDS011;25059;52.132;21.062;2023-07-31T13:25:45;0.10;;;0.10;;
39340;SDS011;25059;52.132;21.062;2023-07-31T13:28:30;0.10;;;0.10;;
39340;SDS011;25059;52.132;21.062;2023-07-31T13:31:14;0.10;;;0.10;;
39340;SDS011;25059;52.132;21.062;2023-07-31T13:33:59;0.20;;;0.20;;
39340;SDS011;25059;52.132;21.062;2023-07-31T13:36:43;0.30;;;0.30;;
39340;SDS011;25059;52.132;21.062;2023-07-31T13:39:28;0.20;;;0.20;;
39340;SDS011;25059;52.132;21.062;2023-07-31T13:42:15;0.30;;;0.30;;
39340;SDS011;25059;52.132;21.062;2023-07-31T13:45:01;0.38;;;0.38;;
39340;SDS011;25059;52.132;21.062;2023-07-31T13:47:45;0.50;;;0.50;;
39340;SDS011;25059;52.132;21.062;2023-07-31T13:50:30;0.30;;;0.30;;
39340;SDS011;25059;52.132;21.062;2023-07-31T13:53:14;0.30;;;0.30;;
39340;SDS011;25059;52.132;21.062;2023-07-31T13:55:58;0.30;;;0.30;;
39340;SDS011;25059;52.132;21.062;2023-07-31T13:58:42;0.20;;;0.20;;
39340;SDS011;25059;52.132;21.062;2023-07-31T14:01:27;0.20;;;0.20;;
39340;SDS011;25059;52.132;21.062;2023-07-31T14:04:11;0.30;;;0.30;;
39340;SDS011;25059;52.132;21.062;2023-07-31T14:06:56;0.20;;;0.20;;
39340;SDS011;25059;52.132;21.062;2023-07-31T14:09:41;0.10;;;0.10;;
39340;SDS011;25059;52.132;21.062;2023-07-31T14:12:26;0.20;;;0.20;;
39340;SDS011;25059;52.132;21.062;2023-07-31T14:15:10;0.10;;;0.10;;
39340;SDS011;25059;52.132;21.062;2023-07-31T14:17:55;0.10;;;0.10;;
39340;SDS011;25059;52.132;21.062;2023-07-31T14:20:39;0.10;;;0.10;;
39340;SDS011;25059;52.132;21.062;2023-07-31T14:23:24;0.10;;;0.10;;
39340;SDS011;25059;52.132;21.062;2023-07-31T14:26:09;0.10;;;0.10;;
39340;SDS011;25059;52.132;21.062;2023-07-31T14:28:54;0.03;;;0.03;;
39340;SDS011;25059;52.132;21.062;2023-07-31T14:31:42;0.10;;;0.10;;
39340;SDS011;25059;52.132;21.062;2023-07-31T14:34:26;0.10;;;0.10;;
39340;SDS011;25059;52.132;21.062;2023-07-31T14:37:11;0.00;;;0.00;;
39340;SDS011;25059;52.132;21.062;2023-07-31T14:39:55;0.00;;;0.00;;
39340;SDS011;25059;52.132;21.062;2023-07-31T14:42:40;0.10;;;0.10;;
39340;SDS011;25059;52.132;21.062;2023-07-31T14:45:24;0.10;;;0.10;;
39340;SDS011;25059;52.132;21.062;2023-07-31T14:48:08;0.10;;;0.10;;
39340;SDS011;25059;52.132;21.062;2023-07-31T14:50:53;0.30;;;0.30;;
39340;SDS011;25059;52.132;21.062;2023-07-31T14:53:38;0.20;;;0.20;;
39340;SDS011;25059;52.132;21.062;2023-07-31T14:56:23;0.20;;;0.20;;
39340;SDS011;25059;52.132;21.062;2023-07-31T14:59:07;0.30;;;0.30;;
39340;SDS011;25059;52.132;21.062;2023-07-31T15:01:54;0.10;;;0.10;;
39340;SDS011;25059;52.132;21.062;2023-07-31T15:04:39;0.10;;;0.10;;
39340;SDS011;25059;52.132;21.062;2023-07-31T15:07:24;0.10;;;0.10;;
39340;SDS011;25059;52.132;21.062;2023-07-31T15:10:08;0.10;;;0.10;;
39340;SDS011;25059;52.132;21.062;2023-07-31T15:12:56;0.10;;;0.10;;
39340;SDS011;25059;52.132;21.062;2023-07-31T15:15:41;0.10;;;0.10;;
39340;SDS011;25059;52.132;21.062;2023-07-31T15:18:25;0.10;;;0.10;;
39340;SDS011;25059;52.132;21.062;2023-07-31T15:21:09;0.10;;;0.10;;
39340;SDS011;25059;52.132;21.062;2023-07-31T15:23:54;0.10;;;0.10;;
39340;SDS011;25059;52.132;21.062;2023-07-31T15:26:37;0.10;;;0.10;;
39340;SDS011;25059;52.132;21.062;2023-07-31T15:29:23;0.00;;;0.00;;
39340;SDS011;25059;52.132;21.062;2023-07-31T15:32:08;0.10;;;0.10;;
